CCA4420 ZUCK-ZULS
Flight info
| Callsign | CCA4420 |
|---|---|
| Flight time | N/A |
| Altitude | 36100 |
| Route | URGEG1Z URGEG W80 WFX B213 LXA |
| Aircraft | A319/M-SDE3FGHIRWY/LB1 |
Departure
| Time | 2026-04-28 22:22 |
|---|---|
| Airport | Chongqing Jiangbei International Airport (ZUCK) |
Arrival
| Time | N/A |
|---|---|
| Airport | Lhasa Gonggar International Airport (ZULS) |
| Time | Latitude | Longitude | Altitude | Speed | Heading |
|---|---|---|---|---|---|
| 2026-04-28 22:10 | 29.73482 | 106.65603 | 1350 ft | 0 kts | 90° |
| 2026-04-28 22:16 | 29.73483 | 106.65588 | 1352 ft | 3 kts | 90° |
| 2026-04-28 22:16 | 29.73483 | 106.65565 | 1350 ft | 3 kts | 90° |
| 2026-04-28 22:16 | 29.73484 | 106.65542 | 1351 ft | 3 kts | 90° |
| 2026-04-28 22:17 | 29.73484 | 106.65520 | 1351 ft | 3 kts | 78° |
| 2026-04-28 22:17 | 29.73477 | 106.65502 | 1351 ft | 3 kts | 35° |
| 2026-04-28 22:17 | 29.73460 | 106.65492 | 1351 ft | 2 kts | 19° |
| 2026-04-28 22:17 | 29.73453 | 106.65489 | 1351 ft | 0 kts | 21° |
| 2026-04-28 22:20 | 29.73484 | 106.65481 | 1352 ft | 9 kts | 315° |
| 2026-04-28 22:20 | 29.73511 | 106.65366 | 1353 ft | 17 kts | 284° |
| 2026-04-28 22:21 | 29.73541 | 106.65241 | 1355 ft | 15 kts | 285° |
| 2026-04-28 22:21 | 29.73563 | 106.65150 | 1356 ft | 5 kts | 285° |
| 2026-04-28 22:21 | 29.73551 | 106.65128 | 1354 ft | 4 kts | 205° |
| 2026-04-28 22:21 | 29.73493 | 106.65108 | 1355 ft | 28 kts | 197° |
| 2026-04-28 22:22 | 29.73018 | 106.64944 | 1358 ft | 111 kts | 197° |
| 2026-04-28 22:22 | 29.72044 | 106.64607 | 1409 ft | 174 kts | 197° |
| 2026-04-28 22:22 | 29.70877 | 106.64198 | 2220 ft | 174 kts | 197° |
| 2026-04-28 22:22 | 29.69699 | 106.63784 | 2908 ft | 186 kts | 197° |
| 2026-04-28 22:23 | 29.68385 | 106.63326 | 3262 ft | 209 kts | 196° |
| 2026-04-28 22:23 | 29.66922 | 106.62817 | 3653 ft | 230 kts | 196° |
| 2026-04-28 22:23 | 29.65313 | 106.62257 | 4124 ft | 254 kts | 196° |
| 2026-04-28 22:23 | 29.63584 | 106.61657 | 4917 ft | 264 kts | 197° |
| 2026-04-28 22:24 | 29.61803 | 106.61036 | 5855 ft | 269 kts | 197° |
| 2026-04-28 22:24 | 29.60006 | 106.60409 | 6804 ft | 272 kts | 197° |
| 2026-04-28 22:24 | 29.58201 | 106.59779 | 7685 ft | 276 kts | 197° |
| 2026-04-28 22:24 | 29.56395 | 106.58994 | 8538 ft | 282 kts | 211° |
| 2026-04-28 22:25 | 29.54952 | 106.57461 | 9405 ft | 287 kts | 236° |
| 2026-04-28 22:25 | 29.54169 | 106.55349 | 10236 ft | 292 kts | 260° |
| 2026-04-28 22:25 | 29.54202 | 106.53014 | 11021 ft | 296 kts | 284° |
| 2026-04-28 22:25 | 29.55066 | 106.50856 | 11589 ft | 308 kts | 309° |
| 2026-04-28 22:26 | 29.56771 | 106.49258 | 11879 ft | 330 kts | 336° |
| 2026-04-28 22:26 | 29.59035 | 106.48725 | 12426 ft | 340 kts | 1° |
| 2026-04-28 22:26 | 29.61405 | 106.48977 | 13187 ft | 345 kts | 6° |
| 2026-04-28 22:26 | 29.63799 | 106.49298 | 13995 ft | 347 kts | 6° |
| 2026-04-28 22:27 | 29.66212 | 106.49639 | 14687 ft | 351 kts | 6° |
| 2026-04-28 22:27 | 29.68650 | 106.49989 | 15375 ft | 354 kts | 6° |
| 2026-04-28 22:27 | 29.71107 | 106.50341 | 16071 ft | 357 kts | 6° |
| 2026-04-28 22:27 | 29.73584 | 106.50689 | 16758 ft | 360 kts | 6° |
| 2026-04-28 22:28 | 29.76084 | 106.51033 | 17451 ft | 364 kts | 6° |
| 2026-04-28 22:28 | 29.78603 | 106.51375 | 18139 ft | 367 kts | 6° |
| 2026-04-28 22:28 | 29.81151 | 106.51723 | 18771 ft | 370 kts | 5° |
| 2026-04-28 22:28 | 29.83723 | 106.52076 | 19343 ft | 374 kts | 5° |
| 2026-04-28 22:29 | 29.86319 | 106.52434 | 19896 ft | 378 kts | 5° |
| 2026-04-28 22:29 | 29.88949 | 106.52799 | 20445 ft | 382 kts | 4° |
| 2026-04-28 22:29 | 29.91606 | 106.53165 | 20989 ft | 387 kts | 4° |
| 2026-04-28 22:29 | 29.94262 | 106.53820 | 21552 ft | 394 kts | 13° |
| 2026-04-28 22:30 | 29.96896 | 106.54748 | 22126 ft | 398 kts | 13° |
| 2026-04-28 22:30 | 29.98656 | 106.55370 | 22499 ft | 401 kts | 13° |
| 2026-04-28 22:30 | 30.01332 | 106.56313 | 23026 ft | 405 kts | 13° |
| 2026-04-28 22:30 | 30.04041 | 106.57265 | 23549 ft | 409 kts | 12° |
| 2026-04-28 22:31 | 30.06781 | 106.58224 | 24006 ft | 413 kts | 12° |
| 2026-04-28 22:31 | 30.09540 | 106.59192 | 24418 ft | 417 kts | 12° |
| 2026-04-28 22:31 | 30.12322 | 106.60173 | 24830 ft | 420 kts | 12° |
| 2026-04-28 22:31 | 30.15134 | 106.61169 | 25236 ft | 423 kts | 12° |
| 2026-04-28 22:32 | 30.17963 | 106.62169 | 25633 ft | 427 kts | 12° |
| 2026-04-28 22:32 | 30.20845 | 106.62933 | 26012 ft | 423 kts | 1° |
| 2026-04-28 22:32 | 30.23769 | 106.62983 | 26397 ft | 419 kts | 349° |
| 2026-04-28 22:32 | 30.26603 | 106.62317 | 26798 ft | 414 kts | 337° |
| 2026-04-28 22:33 | 30.29229 | 106.60999 | 27194 ft | 410 kts | 326° |
| 2026-04-28 22:33 | 30.31549 | 106.59107 | 27601 ft | 407 kts | 315° |
| 2026-04-28 22:33 | 30.33634 | 106.56880 | 27998 ft | 409 kts | 313° |
| 2026-04-28 22:33 | 30.35721 | 106.54630 | 28394 ft | 411 kts | 313° |
| 2026-04-28 22:34 | 30.37817 | 106.52364 | 28789 ft | 414 kts | 313° |
| 2026-04-28 22:34 | 30.39924 | 106.50082 | 29174 ft | 416 kts | 313° |
| 2026-04-28 22:34 | 30.42045 | 106.47783 | 29557 ft | 419 kts | 313° |
| 2026-04-28 22:34 | 30.44182 | 106.45470 | 29934 ft | 421 kts | 313° |
| 2026-04-28 22:35 | 30.46328 | 106.43146 | 30289 ft | 423 kts | 313° |
| 2026-04-28 22:35 | 30.48488 | 106.40802 | 30608 ft | 426 kts | 313° |
| 2026-04-28 22:35 | 30.50652 | 106.38452 | 30901 ft | 428 kts | 313° |
| 2026-04-28 22:35 | 30.52833 | 106.36084 | 31200 ft | 430 kts | 313° |
| 2026-04-28 22:36 | 30.55004 | 106.33696 | 31540 ft | 429 kts | 310° |
| 2026-04-28 22:36 | 30.56822 | 106.31004 | 32035 ft | 421 kts | 299° |
| 2026-04-28 22:36 | 30.58106 | 106.28035 | 32513 ft | 416 kts | 289° |
| 2026-04-28 22:36 | 30.58884 | 106.24818 | 32979 ft | 412 kts | 279° |
| 2026-04-28 22:37 | 30.59121 | 106.21513 | 33425 ft | 411 kts | 270° |
| 2026-04-28 22:37 | 30.58862 | 106.18216 | 33858 ft | 411 kts | 265° |
| 2026-04-28 22:37 | 30.58520 | 106.14929 | 34280 ft | 409 kts | 265° |
| 2026-04-28 22:37 | 30.58181 | 106.11656 | 34668 ft | 408 kts | 265° |
| 2026-04-28 22:38 | 30.57847 | 106.08397 | 35082 ft | 406 kts | 264° |
| 2026-04-28 22:38 | 30.57516 | 106.05158 | 35500 ft | 403 kts | 264° |
| 2026-04-28 22:38 | 30.57183 | 106.01934 | 35901 ft | 401 kts | 264° |
| 2026-04-28 22:38 | 30.56850 | 105.98730 | 36213 ft | 400 kts | 264° |
| 2026-04-28 22:39 | 30.56519 | 105.95541 | 36272 ft | 396 kts | 264° |
| 2026-04-28 22:39 | 30.55865 | 105.89226 | 36284 ft | 393 kts | 264° |
| 2026-04-28 22:40 | 30.55205 | 105.82937 | 36284 ft | 393 kts | 264° |
| 2026-04-28 22:40 | 30.54542 | 105.76641 | 36280 ft | 393 kts | 264° |
| 2026-04-28 22:41 | 30.53884 | 105.70380 | 36282 ft | 393 kts | 264° |
| 2026-04-28 22:41 | 30.53218 | 105.64073 | 36292 ft | 393 kts | 264° |
| 2026-04-28 22:42 | 30.52549 | 105.57799 | 36290 ft | 393 kts | 265° |
| 2026-04-28 22:42 | 30.51870 | 105.51465 | 36289 ft | 393 kts | 265° |
| 2026-04-28 22:43 | 30.51194 | 105.45194 | 36290 ft | 393 kts | 265° |
| 2026-04-28 22:43 | 30.50515 | 105.38923 | 36289 ft | 393 kts | 265° |
| 2026-04-28 22:44 | 30.49862 | 105.32617 | 36289 ft | 392 kts | 268° |
| 2026-04-28 22:44 | 30.50264 | 105.26374 | 36284 ft | 390 kts | 278° |
| 2026-04-28 22:45 | 30.50988 | 105.20117 | 36285 ft | 390 kts | 278° |
| 2026-04-28 22:45 | 30.51701 | 105.13904 | 36286 ft | 390 kts | 278° |
| 2026-04-28 22:46 | 30.52418 | 105.07640 | 36289 ft | 391 kts | 278° |
| 2026-04-28 22:46 | 30.53134 | 105.01379 | 36293 ft | 391 kts | 278° |
| 2026-04-28 22:47 | 30.53839 | 104.95182 | 36292 ft | 390 kts | 278° |
| 2026-04-28 22:47 | 30.54542 | 104.88940 | 36298 ft | 390 kts | 278° |
| 2026-04-28 22:48 | 30.55244 | 104.82689 | 36297 ft | 391 kts | 278° |
| 2026-04-28 22:48 | 30.55944 | 104.76443 | 36298 ft | 390 kts | 278° |
| 2026-04-28 22:49 | 30.56688 | 104.70208 | 36298 ft | 390 kts | 281° |
| 2026-04-28 22:49 | 30.57795 | 104.64049 | 36295 ft | 390 kts | 283° |
| 2026-04-28 22:50 | 30.59026 | 104.57921 | 36295 ft | 390 kts | 283° |
| 2026-04-28 22:50 | 30.60206 | 104.51787 | 36294 ft | 390 kts | 282° |
| 2026-04-28 22:51 | 30.60442 | 104.45513 | 36290 ft | 392 kts | 268° |
| 2026-04-28 22:51 | 30.60023 | 104.39207 | 36290 ft | 392 kts | 268° |
| 2026-04-28 22:52 | 30.59631 | 104.32899 | 36289 ft | 392 kts | 268° |
| 2026-04-28 22:52 | 30.59228 | 104.26587 | 36287 ft | 392 kts | 268° |
| 2026-04-28 22:53 | 30.58836 | 104.20323 | 36277 ft | 392 kts | 268° |
| 2026-04-28 22:53 | 30.58477 | 104.14010 | 36280 ft | 392 kts | 268° |
| 2026-04-28 22:54 | 30.58122 | 104.07695 | 36287 ft | 392 kts | 268° |
| 2026-04-28 22:54 | 30.57756 | 104.01377 | 36295 ft | 392 kts | 268° |
| 2026-04-28 22:55 | 30.57547 | 103.95065 | 36293 ft | 390 kts | 276° |
| 2026-04-28 22:55 | 30.58832 | 103.88973 | 36293 ft | 389 kts | 288° |
| 2026-04-28 22:56 | 30.60517 | 103.82999 | 36285 ft | 389 kts | 288° |
| 2026-04-28 22:56 | 30.62184 | 103.77016 | 36284 ft | 390 kts | 287° |
| 2026-04-28 22:57 | 30.63840 | 103.71060 | 36285 ft | 390 kts | 287° |
| 2026-04-28 22:57 | 30.65452 | 103.65046 | 36285 ft | 390 kts | 286° |
| 2026-04-28 22:58 | 30.66911 | 103.58975 | 36288 ft | 390 kts | 285° |
| 2026-04-28 22:58 | 30.68341 | 103.52900 | 36289 ft | 390 kts | 285° |
| 2026-04-28 22:59 | 30.69790 | 103.46815 | 36285 ft | 390 kts | 285° |
| 2026-04-28 22:59 | 30.71257 | 103.40734 | 36286 ft | 391 kts | 285° |
| 2026-04-28 23:00 | 30.72731 | 103.34647 | 36300 ft | 391 kts | 285° |
| 2026-04-28 23:00 | 30.74206 | 103.28552 | 36311 ft | 392 kts | 285° |
| 2026-04-28 23:01 | 30.75668 | 103.22459 | 36316 ft | 391 kts | 285° |
| 2026-04-28 23:01 | 30.77120 | 103.16363 | 36318 ft | 391 kts | 285° |
| 2026-04-28 23:02 | 30.78572 | 103.10264 | 36308 ft | 392 kts | 285° |
| 2026-04-28 23:02 | 30.80028 | 103.04149 | 36323 ft | 391 kts | 285° |
| 2026-04-28 23:03 | 30.80554 | 102.97896 | 36329 ft | 394 kts | 271° |
| 2026-04-28 23:03 | 30.80432 | 102.91526 | 36341 ft | 394 kts | 271° |
| 2026-04-28 23:04 | 30.80324 | 102.85154 | 36344 ft | 394 kts | 271° |
| 2026-04-28 23:04 | 30.80150 | 102.75589 | 36324 ft | 394 kts | 271° |
| 2026-04-28 23:05 | 30.80030 | 102.69205 | 36325 ft | 395 kts | 271° |
| 2026-04-28 23:05 | 30.79909 | 102.62805 | 36328 ft | 396 kts | 271° |
| 2026-04-28 23:06 | 30.79780 | 102.56386 | 36331 ft | 397 kts | 271° |
| 2026-04-28 23:06 | 30.79647 | 102.49975 | 36340 ft | 397 kts | 271° |
| 2026-04-28 23:07 | 30.79509 | 102.43558 | 36335 ft | 396 kts | 271° |
| 2026-04-28 23:07 | 30.79369 | 102.37178 | 36322 ft | 397 kts | 271° |
| 2026-04-28 23:08 | 30.79233 | 102.30760 | 36330 ft | 397 kts | 271° |
| 2026-04-28 23:08 | 30.79092 | 102.24337 | 36335 ft | 397 kts | 270° |
| 2026-04-28 23:09 | 30.78947 | 102.17917 | 36325 ft | 397 kts | 271° |
| 2026-04-28 23:09 | 30.78798 | 102.11489 | 36333 ft | 398 kts | 270° |
| 2026-04-28 23:10 | 30.78645 | 102.05061 | 36346 ft | 396 kts | 270° |
| 2026-04-28 23:10 | 30.78492 | 101.98655 | 36329 ft | 396 kts | 270° |
| 2026-04-28 23:11 | 30.78336 | 101.92255 | 36316 ft | 395 kts | 270° |
| 2026-04-28 23:11 | 30.78641 | 101.85893 | 36311 ft | 394 kts | 276° |
| 2026-04-28 23:12 | 30.79168 | 101.79588 | 36316 ft | 395 kts | 277° |
| 2026-04-28 23:12 | 30.79705 | 101.73239 | 36302 ft | 394 kts | 277° |
| 2026-04-28 23:13 | 30.80239 | 101.66893 | 36296 ft | 394 kts | 276° |
| 2026-04-28 23:13 | 30.80759 | 101.60543 | 36294 ft | 395 kts | 276° |
| 2026-04-28 23:14 | 30.81277 | 101.54170 | 36290 ft | 396 kts | 276° |
| 2026-04-28 23:14 | 30.81791 | 101.47788 | 36316 ft | 396 kts | 276° |
| 2026-04-28 23:15 | 30.82297 | 101.41418 | 36291 ft | 394 kts | 276° |
| 2026-04-28 23:15 | 30.82802 | 101.35065 | 36282 ft | 394 kts | 276° |
| 2026-04-28 23:16 | 30.83308 | 101.28711 | 36279 ft | 395 kts | 276° |
| 2026-04-28 23:16 | 30.83819 | 101.22355 | 36276 ft | 394 kts | 276° |
| 2026-04-28 23:17 | 30.84235 | 101.17087 | 36277 ft | 393 kts | 276° |
| 2026-04-28 23:17 | 30.84727 | 101.10752 | 36273 ft | 393 kts | 276° |
| 2026-04-28 23:18 | 30.85219 | 101.04429 | 36267 ft | 392 kts | 276° |
| 2026-04-28 23:18 | 30.85713 | 100.98112 | 36257 ft | 392 kts | 276° |
| 2026-04-28 23:19 | 30.86199 | 100.91785 | 36254 ft | 392 kts | 276° |
| 2026-04-28 23:19 | 30.86686 | 100.85471 | 36223 ft | 391 kts | 276° |
| 2026-04-28 23:20 | 30.87168 | 100.79157 | 36229 ft | 393 kts | 276° |
| 2026-04-28 23:20 | 30.87636 | 100.72813 | 36239 ft | 393 kts | 276° |
| 2026-04-28 23:21 | 30.88104 | 100.66517 | 36237 ft | 393 kts | 276° |
| 2026-04-28 23:21 | 30.88574 | 100.60179 | 36237 ft | 393 kts | 276° |
| 2026-04-28 23:22 | 30.89041 | 100.53837 | 36225 ft | 393 kts | 276° |
| 2026-04-28 23:22 | 30.89513 | 100.47494 | 36226 ft | 393 kts | 276° |
| 2026-04-28 23:23 | 30.89974 | 100.41154 | 36221 ft | 393 kts | 276° |
| 2026-04-28 23:23 | 30.90427 | 100.34819 | 36219 ft | 392 kts | 275° |
| 2026-04-28 23:24 | 30.90883 | 100.28482 | 36220 ft | 392 kts | 276° |
| 2026-04-28 23:24 | 30.91335 | 100.22163 | 36205 ft | 391 kts | 276° |
| 2026-04-28 23:25 | 30.91787 | 100.15823 | 36198 ft | 392 kts | 275° |
| 2026-04-28 23:25 | 30.92233 | 100.09527 | 36198 ft | 392 kts | 275° |
| 2026-04-28 23:26 | 30.92677 | 100.03189 | 36195 ft | 393 kts | 276° |
| 2026-04-28 23:26 | 30.93126 | 99.96846 | 36197 ft | 393 kts | 276° |
| 2026-04-28 23:27 | 30.93631 | 99.90498 | 36200 ft | 393 kts | 276° |
| 2026-04-28 23:27 | 30.94152 | 99.84159 | 36201 ft | 393 kts | 276° |
| 2026-04-28 23:28 | 30.94654 | 99.77803 | 36202 ft | 393 kts | 276° |
| 2026-04-28 23:28 | 30.95147 | 99.71469 | 36198 ft | 392 kts | 276° |
| 2026-04-28 23:29 | 30.95635 | 99.65132 | 36199 ft | 393 kts | 276° |
| 2026-04-28 23:29 | 30.96132 | 99.58780 | 36202 ft | 393 kts | 276° |
| 2026-04-28 23:30 | 30.96616 | 99.52480 | 36198 ft | 393 kts | 276° |
| 2026-04-28 23:30 | 30.97096 | 99.46139 | 36195 ft | 393 kts | 276° |
| 2026-04-28 23:31 | 30.97578 | 99.39810 | 36199 ft | 392 kts | 276° |
| 2026-04-28 23:31 | 30.98054 | 99.33484 | 36192 ft | 391 kts | 276° |
| 2026-04-28 23:32 | 30.98524 | 99.27192 | 36194 ft | 390 kts | 276° |
| 2026-04-28 23:32 | 30.98991 | 99.20904 | 36180 ft | 389 kts | 276° |
| 2026-04-28 23:33 | 30.99455 | 99.14597 | 36192 ft | 391 kts | 277° |
| 2026-04-28 23:33 | 30.99917 | 99.08285 | 36175 ft | 390 kts | 276° |
| 2026-04-28 23:34 | 31.00375 | 99.01989 | 36184 ft | 389 kts | 277° |
| 2026-04-28 23:34 | 31.00829 | 98.95703 | 36191 ft | 389 kts | 276° |
| 2026-04-28 23:35 | 31.01277 | 98.89447 | 36178 ft | 390 kts | 276° |
| 2026-04-28 23:35 | 31.01725 | 98.83154 | 36175 ft | 389 kts | 276° |
| 2026-04-28 23:36 | 31.02168 | 98.76854 | 36175 ft | 390 kts | 277° |
| 2026-04-28 23:36 | 31.02610 | 98.70544 | 36181 ft | 389 kts | 277° |
| 2026-04-28 23:37 | 31.03048 | 98.64284 | 36181 ft | 387 kts | 277° |
| 2026-04-28 23:37 | 31.03565 | 98.58032 | 36188 ft | 387 kts | 278° |
| 2026-04-28 23:38 | 31.04113 | 98.51797 | 36188 ft | 386 kts | 278° |
| 2026-04-28 23:38 | 31.04639 | 98.45573 | 36189 ft | 386 kts | 277° |
| 2026-04-28 23:39 | 31.05146 | 98.39358 | 36179 ft | 385 kts | 278° |
| 2026-04-28 23:39 | 31.05649 | 98.33142 | 36161 ft | 385 kts | 278° |
| 2026-04-28 23:40 | 31.06148 | 98.26934 | 36174 ft | 384 kts | 278° |
| 2026-04-28 23:40 | 31.06651 | 98.20729 | 36177 ft | 383 kts | 278° |
| 2026-04-28 23:41 | 31.07149 | 98.14577 | 36179 ft | 383 kts | 278° |
| 2026-04-28 23:41 | 31.07645 | 98.08394 | 36180 ft | 383 kts | 277° |
| 2026-04-28 23:42 | 31.08140 | 98.02216 | 36182 ft | 383 kts | 278° |
| 2026-04-28 23:42 | 31.08634 | 97.96043 | 36159 ft | 382 kts | 278° |
| 2026-04-28 23:43 | 31.09124 | 97.89870 | 36163 ft | 383 kts | 278° |
| 2026-04-28 23:43 | 31.09618 | 97.83684 | 36165 ft | 383 kts | 278° |
| 2026-04-28 23:44 | 31.10109 | 97.77488 | 36175 ft | 383 kts | 278° |
| 2026-04-28 23:44 | 31.10595 | 97.71296 | 36162 ft | 382 kts | 278° |
| 2026-04-28 23:45 | 31.11074 | 97.65161 | 36158 ft | 383 kts | 278° |
| 2026-04-28 23:45 | 31.11547 | 97.58970 | 36169 ft | 383 kts | 278° |
| 2026-04-28 23:46 | 31.12022 | 97.52780 | 36175 ft | 382 kts | 278° |
| 2026-04-28 23:46 | 31.12495 | 97.46589 | 36190 ft | 384 kts | 278° |
| 2026-04-28 23:47 | 31.12967 | 97.40414 | 36192 ft | 381 kts | 278° |
| 2026-04-28 23:47 | 31.13429 | 97.34245 | 36193 ft | 381 kts | 278° |
| 2026-04-28 23:48 | 31.13890 | 97.28099 | 36185 ft | 380 kts | 278° |
| 2026-04-28 23:48 | 31.14351 | 97.21954 | 36185 ft | 380 kts | 278° |
| 2026-04-28 23:49 | 31.14265 | 97.15775 | 36185 ft | 388 kts | 264° |
| 2026-04-28 23:49 | 31.12946 | 97.09639 | 36184 ft | 390 kts | 262° |
| 2026-04-28 23:50 | 31.11638 | 97.03544 | 36186 ft | 389 kts | 262° |
| 2026-04-28 23:50 | 31.10335 | 96.97426 | 36184 ft | 388 kts | 262° |
| 2026-04-28 23:51 | 31.09025 | 96.91324 | 36185 ft | 388 kts | 262° |
| 2026-04-28 23:51 | 31.07714 | 96.85217 | 36177 ft | 388 kts | 262° |
| 2026-04-28 23:52 | 31.06392 | 96.79110 | 36152 ft | 388 kts | 262° |
| 2026-04-28 23:52 | 31.05064 | 96.73009 | 36161 ft | 389 kts | 262° |
| 2026-04-28 23:53 | 31.03738 | 96.66887 | 36175 ft | 390 kts | 261° |
| 2026-04-28 23:53 | 31.02405 | 96.60741 | 36185 ft | 390 kts | 262° |
| 2026-04-28 23:54 | 31.01067 | 96.54629 | 36180 ft | 389 kts | 262° |
| 2026-04-28 23:54 | 30.99732 | 96.48532 | 36176 ft | 388 kts | 262° |
| 2026-04-28 23:55 | 30.98400 | 96.42424 | 36157 ft | 389 kts | 262° |
| 2026-04-28 23:55 | 30.97090 | 96.36339 | 36176 ft | 391 kts | 262° |
| 2026-04-28 23:56 | 30.95807 | 96.30209 | 36168 ft | 388 kts | 262° |
| 2026-04-28 23:56 | 30.94525 | 96.24109 | 36168 ft | 388 kts | 262° |
| 2026-04-28 23:57 | 30.93229 | 96.18001 | 36165 ft | 388 kts | 262° |
| 2026-04-28 23:57 | 30.91922 | 96.11887 | 36171 ft | 388 kts | 262° |
| 2026-04-28 23:58 | 30.90615 | 96.05778 | 36156 ft | 389 kts | 261° |
| 2026-04-28 23:58 | 30.89299 | 95.99640 | 36164 ft | 391 kts | 261° |
| 2026-04-28 23:59 | 30.87982 | 95.93510 | 36169 ft | 390 kts | 261° |
| 2026-04-28 23:59 | 30.86669 | 95.87385 | 36171 ft | 390 kts | 261° |
| 2026-04-29 00:00 | 30.85352 | 95.81266 | 36173 ft | 390 kts | 261° |
| 2026-04-29 00:00 | 30.84025 | 95.75130 | 36161 ft | 391 kts | 261° |
| 2026-04-29 00:01 | 30.82713 | 95.68991 | 36176 ft | 393 kts | 261° |
| 2026-04-29 00:01 | 30.81438 | 95.62767 | 36181 ft | 397 kts | 261° |
| 2026-04-29 00:02 | 30.80167 | 95.56535 | 36189 ft | 396 kts | 261° |
| 2026-04-29 00:02 | 30.78884 | 95.50299 | 36189 ft | 397 kts | 261° |
| 2026-04-29 00:03 | 30.77591 | 95.44040 | 36205 ft | 398 kts | 261° |
| 2026-04-29 00:03 | 30.76289 | 95.37837 | 36206 ft | 398 kts | 261° |
| 2026-04-29 00:04 | 30.74980 | 95.31588 | 36204 ft | 397 kts | 260° |
| 2026-04-29 00:04 | 30.73674 | 95.25334 | 36240 ft | 398 kts | 259° |
| 2026-04-29 00:05 | 30.72365 | 95.19087 | 36247 ft | 398 kts | 259° |
| 2026-04-29 00:05 | 30.71274 | 95.13887 | 36246 ft | 397 kts | 260° |
| 2026-04-29 00:06 | 30.69963 | 95.07659 | 36245 ft | 397 kts | 259° |
| 2026-04-29 00:06 | 30.68640 | 95.01411 | 36254 ft | 398 kts | 259° |
| 2026-04-29 00:07 | 30.67315 | 94.95173 | 36230 ft | 396 kts | 259° |
| 2026-04-29 00:07 | 30.65991 | 94.88953 | 36248 ft | 397 kts | 260° |
| 2026-04-29 00:08 | 30.64666 | 94.82712 | 36274 ft | 398 kts | 258° |
| 2026-04-29 00:08 | 30.63333 | 94.76477 | 36268 ft | 397 kts | 258° |
| 2026-04-29 00:09 | 30.62000 | 94.70256 | 36270 ft | 396 kts | 259° |
| 2026-04-29 00:09 | 30.60681 | 94.64090 | 36266 ft | 396 kts | 258° |
| 2026-04-29 00:10 | 30.59346 | 94.57887 | 36257 ft | 396 kts | 259° |
| 2026-04-29 00:10 | 30.58010 | 94.51686 | 36250 ft | 396 kts | 258° |
| 2026-04-29 00:11 | 30.56666 | 94.45462 | 36256 ft | 398 kts | 258° |
| 2026-04-29 00:12 | 30.54643 | 94.36117 | 36247 ft | 397 kts | 258° |
| 2026-04-29 00:12 | 30.53287 | 94.29891 | 36259 ft | 400 kts | 258° |
| 2026-04-29 00:13 | 30.51915 | 94.23647 | 36248 ft | 398 kts | 258° |
| 2026-04-29 00:13 | 30.50563 | 94.17420 | 36248 ft | 399 kts | 258° |
| 2026-04-29 00:14 | 30.49274 | 94.11166 | 36249 ft | 398 kts | 258° |
| 2026-04-29 00:14 | 30.47995 | 94.04923 | 36250 ft | 399 kts | 258° |
| 2026-04-29 00:15 | 30.46694 | 93.98675 | 36254 ft | 398 kts | 258° |
| 2026-04-29 00:15 | 30.45387 | 93.92435 | 36250 ft | 398 kts | 258° |
| 2026-04-29 00:16 | 30.44082 | 93.86188 | 36248 ft | 399 kts | 258° |
| 2026-04-29 00:16 | 30.42781 | 93.79949 | 36245 ft | 398 kts | 258° |
| 2026-04-29 00:17 | 30.41460 | 93.73706 | 36240 ft | 399 kts | 258° |
| 2026-04-29 00:17 | 30.40140 | 93.67468 | 36236 ft | 398 kts | 258° |
| 2026-04-29 00:18 | 30.38832 | 93.61280 | 36243 ft | 398 kts | 258° |
| 2026-04-29 00:18 | 30.37081 | 93.55171 | 36249 ft | 401 kts | 252° |
| 2026-04-29 00:19 | 30.35204 | 93.49088 | 36217 ft | 400 kts | 252° |
| 2026-04-29 00:19 | 30.33325 | 93.43008 | 36221 ft | 402 kts | 252° |
| 2026-04-29 00:20 | 30.31429 | 93.36902 | 36224 ft | 404 kts | 252° |
| 2026-04-29 00:20 | 30.29531 | 93.30787 | 36222 ft | 404 kts | 252° |
| 2026-04-29 00:21 | 30.27632 | 93.24659 | 36228 ft | 405 kts | 252° |
| 2026-04-29 00:21 | 30.25718 | 93.18538 | 36226 ft | 405 kts | 252° |
| 2026-04-29 00:22 | 30.23812 | 93.12413 | 36237 ft | 405 kts | 252° |
| 2026-04-29 00:22 | 30.21896 | 93.06301 | 36239 ft | 404 kts | 252° |
| 2026-04-29 00:23 | 30.19984 | 93.00193 | 36233 ft | 405 kts | 252° |
| 2026-04-29 00:23 | 30.18069 | 92.94069 | 36228 ft | 405 kts | 252° |
| 2026-04-29 00:24 | 30.16145 | 92.87945 | 36234 ft | 406 kts | 252° |
| 2026-04-29 00:24 | 30.14207 | 92.81817 | 36233 ft | 406 kts | 252° |
| 2026-04-29 00:25 | 30.12279 | 92.75700 | 36236 ft | 405 kts | 252° |
| 2026-04-29 00:25 | 30.10367 | 92.69633 | 36223 ft | 405 kts | 252° |
| 2026-04-29 00:26 | 30.08427 | 92.63525 | 36205 ft | 405 kts | 252° |
| 2026-04-29 00:26 | 30.06477 | 92.57417 | 36191 ft | 406 kts | 252° |
| 2026-04-29 00:27 | 30.04564 | 92.51289 | 36199 ft | 406 kts | 252° |
| 2026-04-29 00:27 | 30.02664 | 92.45141 | 36200 ft | 407 kts | 252° |
| 2026-04-29 00:28 | 30.00760 | 92.38998 | 36184 ft | 407 kts | 252° |
| 2026-04-29 00:28 | 29.98841 | 92.32852 | 36190 ft | 408 kts | 252° |
| 2026-04-29 00:29 | 29.96918 | 92.26695 | 36162 ft | 408 kts | 252° |
| 2026-04-29 00:29 | 29.94987 | 92.20551 | 36155 ft | 408 kts | 252° |
| 2026-04-29 00:30 | 29.93045 | 92.14379 | 36170 ft | 410 kts | 252° |
| 2026-04-29 00:30 | 29.91095 | 92.08196 | 36170 ft | 409 kts | 252° |
| 2026-04-29 00:31 | 29.89152 | 92.02025 | 36169 ft | 410 kts | 252° |
| 2026-04-29 00:31 | 29.87223 | 91.95913 | 36140 ft | 408 kts | 252° |
| 2026-04-29 00:32 | 29.85278 | 91.89765 | 36143 ft | 409 kts | 252° |
| 2026-04-29 00:32 | 29.83322 | 91.83597 | 36149 ft | 411 kts | 251° |
| 2026-04-29 00:33 | 29.81373 | 91.77418 | 36129 ft | 410 kts | 251° |
| 2026-04-29 00:33 | 29.79441 | 91.71227 | 36122 ft | 412 kts | 251° |
| 2026-04-29 00:34 | 29.77508 | 91.65006 | 36097 ft | 414 kts | 252° |
| 2026-04-29 00:34 | 29.75562 | 91.58765 | 36096 ft | 415 kts | 251° |
| 2026-04-29 00:35 | 29.73582 | 91.52497 | 35959 ft | 417 kts | 251° |
| 2026-04-29 00:35 | 29.72588 | 91.49350 | 35295 ft | 419 kts | 251° |
| 2026-04-29 00:35 | 29.71585 | 91.46156 | 34039 ft | 430 kts | 251° |
| 2026-04-29 00:35 | 29.70562 | 91.42864 | 32619 ft | 443 kts | 251° |
| 2026-04-29 00:36 | 29.69525 | 91.39525 | 31631 ft | 444 kts | 251° |
| 2026-04-29 00:36 | 29.68486 | 91.36189 | 30957 ft | 437 kts | 251° |
| 2026-04-29 00:36 | 29.67481 | 91.32975 | 30829 ft | 418 kts | 251° |
| 2026-04-29 00:36 | 29.66587 | 91.29865 | 30682 ft | 401 kts | 255° |
| 2026-04-29 00:37 | 29.65949 | 91.26825 | 30297 ft | 392 kts | 260° |
| 2026-04-29 00:37 | 29.65548 | 91.23748 | 29759 ft | 387 kts | 265° |
| 2026-04-29 00:37 | 29.65381 | 91.20679 | 29158 ft | 384 kts | 269° |
| 2026-04-29 00:37 | 29.65418 | 91.17619 | 28543 ft | 380 kts | 273° |
| 2026-04-29 00:38 | 29.65542 | 91.14600 | 27901 ft | 377 kts | 268° |
| 2026-04-29 00:38 | 29.65243 | 91.11615 | 27246 ft | 376 kts | 258° |
| 2026-04-29 00:38 | 29.64489 | 91.08745 | 26605 ft | 374 kts | 248° |
| 2026-04-29 00:38 | 29.63330 | 91.06072 | 25998 ft | 373 kts | 239° |
| 2026-04-29 00:39 | 29.61803 | 91.03673 | 25395 ft | 371 kts | 229° |
| 2026-04-29 00:39 | 29.59944 | 91.01630 | 24794 ft | 370 kts | 219° |
| 2026-04-29 00:39 | 29.57810 | 91.00001 | 24148 ft | 368 kts | 208° |
| 2026-04-29 00:39 | 29.55493 | 90.98763 | 23504 ft | 366 kts | 204° |
| 2026-04-29 00:40 | 29.53171 | 90.97590 | 22787 ft | 363 kts | 204° |
| 2026-04-29 00:40 | 29.50872 | 90.96434 | 22114 ft | 359 kts | 204° |
| 2026-04-29 00:40 | 29.48555 | 90.95266 | 21131 ft | 368 kts | 204° |
| 2026-04-29 00:40 | 29.46197 | 90.94077 | 20189 ft | 372 kts | 204° |
| 2026-04-29 00:41 | 29.43843 | 90.92891 | 19276 ft | 375 kts | 204° |
| 2026-04-29 00:41 | 29.42224 | 90.92076 | 18665 ft | 377 kts | 204° |
| 2026-04-29 00:41 | 29.39270 | 90.90060 | 17559 ft | 374 kts | 224° |
| 2026-04-29 00:41 | 29.37843 | 90.87587 | 16694 ft | 374 kts | 250° |
| 2026-04-29 00:42 | 29.37416 | 90.84716 | 16455 ft | 356 kts | 266° |
| 2026-04-29 00:42 | 29.37206 | 90.81960 | 16176 ft | 341 kts | 262° |
| 2026-04-29 00:42 | 29.36795 | 90.79316 | 15716 ft | 334 kts | 256° |
| 2026-04-29 00:42 | 29.36000 | 90.76872 | 15245 ft | 322 kts | 234° |
| 2026-04-29 00:43 | 29.34404 | 90.75207 | 14768 ft | 306 kts | 204° |
| 2026-04-29 00:43 | 29.32401 | 90.74785 | 14383 ft | 286 kts | 171° |
| 2026-04-29 00:43 | 29.30653 | 90.75619 | 14052 ft | 267 kts | 137° |
| 2026-04-29 00:43 | 29.29706 | 90.77332 | 13745 ft | 250 kts | 104° |
| 2026-04-29 00:44 | 29.29606 | 90.79222 | 13493 ft | 234 kts | 84° |
| 2026-04-29 00:44 | 29.29657 | 90.81033 | 13200 ft | 221 kts | 89° |
| 2026-04-29 00:44 | 29.29678 | 90.82757 | 12862 ft | 210 kts | 89° |
| 2026-04-29 00:44 | 29.29711 | 90.84327 | 12553 ft | 188 kts | 88° |
| 2026-04-29 00:45 | 29.29729 | 90.85774 | 12194 ft | 175 kts | 88° |
| 2026-04-29 00:45 | 29.29752 | 90.87124 | 11937 ft | 165 kts | 89° |
| 2026-04-29 00:45 | 29.29769 | 90.88423 | 11727 ft | 161 kts | 89° |
| 2026-04-29 00:45 | 29.29786 | 90.89697 | 11600 ft | 159 kts | 89° |
| 2026-04-29 00:46 | 29.29802 | 90.90895 | 11598 ft | 147 kts | 89° |
| 2026-04-29 00:46 | 29.29824 | 90.92154 | 11911 ft | 163 kts | 89° |
| 2026-04-29 00:46 | 29.29842 | 90.93452 | 12657 ft | 162 kts | 89° |
| 2026-04-29 00:46 | 29.29862 | 90.94759 | 13049 ft | 163 kts | 88° |
| 2026-04-29 00:47 | 29.29881 | 90.96016 | 13111 ft | 163 kts | 89° |
| 2026-04-29 00:47 | 29.29901 | 90.97367 | 13379 ft | 172 kts | 89° |
| 2026-04-29 00:47 | 29.29922 | 90.98738 | 13535 ft | 181 kts | 89° |
| 2026-04-29 00:47 | 29.29977 | 91.00222 | 13852 ft | 192 kts | 83° |
| 2026-04-29 00:48 | 29.30299 | 91.01727 | 14173 ft | 202 kts | 72° |
| 2026-04-29 00:48 | 29.30840 | 91.03230 | 14350 ft | 201 kts | 63° |
| 2026-04-29 00:48 | 29.31443 | 91.04649 | 14608 ft | 200 kts | 69° |
| 2026-04-29 00:48 | 29.31820 | 91.06237 | 14739 ft | 216 kts | 81° |
| 2026-04-29 00:49 | 29.31919 | 91.08018 | 14886 ft | 232 kts | 93° |
| 2026-04-29 00:49 | 29.31671 | 91.09921 | 15042 ft | 251 kts | 105° |
| 2026-04-29 00:49 | 29.31170 | 91.11912 | 15309 ft | 267 kts | 105° |
| 2026-04-29 00:49 | 29.30739 | 91.14011 | 15796 ft | 273 kts | 102° |
| 2026-04-29 00:50 | 29.30416 | 91.16166 | 16462 ft | 275 kts | 99° |
| 2026-04-29 00:50 | 29.30201 | 91.18347 | 17165 ft | 277 kts | 96° |
| 2026-04-29 00:50 | 29.30043 | 91.20562 | 17811 ft | 281 kts | 96° |
| 2026-04-29 00:50 | 29.29880 | 91.22808 | 18452 ft | 285 kts | 96° |
| 2026-04-29 00:51 | 29.29711 | 91.25085 | 19006 ft | 288 kts | 96° |
| 2026-04-29 00:51 | 29.29604 | 91.27391 | 19563 ft | 292 kts | 86° |
| 2026-04-29 00:51 | 29.30125 | 91.29646 | 20107 ft | 297 kts | 63° |
| 2026-04-29 00:51 | 29.31408 | 91.31495 | 20642 ft | 300 kts | 38° |
| 2026-04-29 00:52 | 29.33234 | 91.32578 | 21184 ft | 302 kts | 13° |
| 2026-04-29 00:52 | 29.35358 | 91.32825 | 21497 ft | 318 kts | 360° |
| 2026-04-29 00:52 | 29.37652 | 91.32825 | 21623 ft | 341 kts | 359° |
| 2026-04-29 00:52 | 29.40067 | 91.32659 | 21806 ft | 353 kts | 347° |
| 2026-04-29 00:53 | 29.42352 | 91.31681 | 21557 ft | 351 kts | 328° |
| 2026-04-29 00:53 | 29.44207 | 91.29898 | 21146 ft | 348 kts | 308° |
| 2026-04-29 00:53 | 29.45423 | 91.27528 | 20766 ft | 345 kts | 289° |
| 2026-04-29 00:53 | 29.45901 | 91.24857 | 20378 ft | 342 kts | 270° |
| 2026-04-29 00:54 | 29.45667 | 91.22156 | 20021 ft | 339 kts | 259° |
| 2026-04-29 00:54 | 29.45248 | 91.19494 | 19615 ft | 339 kts | 254° |
| 2026-04-29 00:54 | 29.44620 | 91.17873 | 19437 ft | 334 kts | 233° |
| 2026-04-29 00:54 | 29.42893 | 91.16080 | 18472 ft | 350 kts | 205° |
| 2026-04-29 00:55 | 29.40522 | 91.15231 | 17124 ft | 365 kts | 189° |
| 2026-04-29 00:55 | 29.37997 | 91.14863 | 16358 ft | 363 kts | 185° |
| 2026-04-29 00:55 | 29.35512 | 91.14697 | 15995 ft | 350 kts | 181° |
| 2026-04-29 00:55 | 29.33133 | 91.14664 | 15778 ft | 333 kts | 179° |
| 2026-04-29 00:56 | 29.30892 | 91.14406 | 15600 ft | 316 kts | 199° |
| 2026-04-29 00:56 | 29.29124 | 91.13042 | 15236 ft | 303 kts | 234° |
| 2026-04-29 00:56 | 29.28499 | 91.10898 | 15045 ft | 278 kts | 272° |
| 2026-04-29 00:56 | 29.29001 | 91.08791 | 14481 ft | 277 kts | 291° |
| 2026-04-29 00:57 | 29.29754 | 91.06788 | 14104 ft | 267 kts | 292° |
| 2026-04-29 00:57 | 29.30291 | 91.04818 | 13745 ft | 254 kts | 274° |
| 2026-04-29 00:57 | 29.30308 | 91.02847 | 13464 ft | 239 kts | 270° |
| 2026-04-29 00:57 | 29.30308 | 91.01019 | 13259 ft | 221 kts | 269° |
| 2026-04-29 00:58 | 29.30284 | 90.99338 | 12988 ft | 200 kts | 268° |
| 2026-04-29 00:58 | 29.30250 | 90.97802 | 12595 ft | 187 kts | 269° |
| 2026-04-29 00:58 | 29.30218 | 90.96369 | 12215 ft | 175 kts | 268° |
| 2026-04-29 00:58 | 29.30204 | 90.95016 | 11940 ft | 166 kts | 269° |
| 2026-04-29 00:59 | 29.30184 | 90.93705 | 11732 ft | 163 kts | 268° |
| 2026-04-29 00:59 | 29.30166 | 90.92429 | 11586 ft | 155 kts | 267° |
| 2026-04-29 00:59 | 29.30152 | 90.91342 | 11586 ft | 102 kts | 269° |